createdAt,value
2023-01-19T00:01:45.796Z,93.17
2023-01-19T00:04:14.564Z,93.08
2023-01-19T00:06:44.819Z,94.19
2023-01-19T00:09:13.595Z,93.53
2023-01-19T00:11:42.417Z,94.02
2023-01-19T00:14:10.852Z,94.04
2023-01-19T00:16:39.219Z,93.80
2023-01-19T00:19:07.999Z,93.35
2023-01-19T00:21:37.006Z,93.89
2023-01-19T00:24:08.236Z,93.45
2023-01-19T00:26:40.533Z,94.14
2023-01-19T00:29:09.599Z,93.25
2023-01-19T00:31:38.752Z,93.69
2023-01-19T00:34:08.942Z,93.91
2023-01-19T00:36:37.419Z,94.07
2023-01-19T00:39:07.251Z,93.27
2023-01-19T00:41:52.903Z,93.42
2023-01-19T00:44:21.665Z,93.54
2023-01-19T00:46:50.193Z,93.75
2023-01-19T00:49:18.785Z,93.46
2023-01-19T00:51:47.247Z,93.38
2023-01-19T00:54:17.119Z,93.85
2023-01-19T00:56:46.024Z,94.20
2023-01-19T00:59:14.750Z,93.94
2023-01-19T01:01:45.183Z,94.16
2023-01-19T01:04:15.001Z,93.29
2023-01-19T01:06:44.102Z,93.47
2023-01-19T01:09:12.881Z,93.92
2023-01-19T01:11:43.975Z,93.53
2023-01-19T01:14:13.501Z,93.55
2023-01-19T01:16:42.648Z,94.32
2023-01-19T01:19:11.252Z,94.52
2023-01-19T01:21:39.671Z,93.16
2023-01-19T01:24:09.428Z,93.42
2023-01-19T01:26:38.101Z,93.73
2023-01-19T01:29:08.867Z,94.13
2023-01-19T01:31:37.624Z,93.31
2023-01-19T01:34:06.166Z,94.38
2023-01-19T01:36:35.849Z,94.04
2023-01-19T01:39:04.613Z,93.76
2023-01-19T01:41:33.529Z,94.47
2023-01-19T01:44:06.293Z,94.40
2023-01-19T01:46:36.086Z,94.22
2023-01-19T01:49:09.732Z,93.37
2023-01-19T01:51:45.102Z,93.35
2023-01-19T01:54:19.023Z,94.02
2023-01-19T01:56:50.498Z,94.21
2023-01-19T01:59:29.926Z,93.50
2023-01-19T02:02:23.395Z,94.20
2023-01-19T02:04:56.009Z,93.75
2023-01-19T02:07:55.291Z,94.45
2023-01-19T02:10:41.688Z,94.31
2023-01-19T02:13:19.791Z,93.70
2023-01-19T02:15:49.708Z,93.81
2023-01-19T02:18:19.721Z,93.47
2023-01-19T02:20:58.794Z,93.76
2023-01-19T02:23:41.770Z,93.87
2023-01-19T02:26:12.715Z,94.12
2023-01-19T02:28:46.081Z,94.62
2023-01-19T02:31:15.338Z,93.31
2023-01-19T02:33:44.189Z,93.32
2023-01-19T02:36:15.240Z,93.37
2023-01-19T02:38:46.426Z,93.83
2023-01-19T02:41:20.861Z,93.85
2023-01-19T02:43:51.092Z,94.39
2023-01-19T02:46:19.852Z,93.85
2023-01-19T02:48:48.337Z,93.62
2023-01-19T02:51:18.755Z,93.30
2023-01-19T02:54:24.906Z,94.43
2023-01-19T02:57:14.457Z,94.18
2023-01-19T02:59:58.435Z,93.62
2023-01-19T03:02:38.295Z,93.64
2023-01-19T03:05:37.037Z,94.23
2023-01-19T03:08:16.341Z,93.82
2023-01-19T03:10:54.781Z,93.37
2023-01-19T03:13:31.739Z,93.77
2023-01-19T03:16:08.279Z,93.44
2023-01-19T03:18:39.839Z,93.48
2023-01-19T03:21:11.048Z,93.71
2023-01-19T03:23:42.948Z,94.20
2023-01-19T03:26:17.507Z,93.65
2023-01-19T03:28:48.913Z,93.50
2023-01-19T03:31:22.071Z,93.62
2023-01-19T03:33:54.896Z,93.57
2023-01-19T03:36:28.634Z,94.27
2023-01-19T03:39:00.010Z,94.14
2023-01-19T03:41:34.339Z,93.37
2023-01-19T03:44:06.083Z,93.35
2023-01-19T03:46:35.320Z,94.63
2023-01-19T03:49:04.066Z,93.82
2023-01-19T03:51:33.085Z,94.61
2023-01-19T03:54:01.666Z,93.49
2023-01-19T03:56:31.774Z,94.20
2023-01-19T03:59:00.216Z,93.85
2023-01-19T04:01:28.925Z,93.79
2023-01-19T04:03:57.438Z,94.74
2023-01-19T04:06:26.959Z,93.94
2023-01-19T04:08:55.949Z,93.73
2023-01-19T04:11:24.495Z,94.17
2023-01-19T04:13:54.295Z,94.07
2023-01-19T04:16:23.565Z,93.90
2023-01-19T04:18:52.745Z,93.68
2023-01-19T04:21:21.793Z,93.74
2023-01-19T04:23:50.981Z,93.92
2023-01-19T04:26:19.464Z,93.81
2023-01-19T04:28:47.753Z,93.75
2023-01-19T04:31:19.318Z,94.67
2023-01-19T04:33:47.746Z,93.40
2023-01-19T04:36:16.094Z,93.48
2023-01-19T04:38:46.693Z,93.69
2023-01-19T04:41:15.087Z,93.53
2023-01-19T04:43:44.029Z,94.52
2023-01-19T04:46:12.630Z,94.05
2023-01-19T04:48:42.801Z,94.31
2023-01-19T04:51:11.283Z,93.91
2023-01-19T04:53:39.597Z,94.30
2023-01-19T04:56:08.964Z,94.41
2023-01-19T04:58:38.046Z,94.32
2023-01-19T05:01:09.663Z,94.83
2023-01-19T05:03:38.580Z,94.30
2023-01-19T05:06:09.305Z,94.31
2023-01-19T05:08:38.457Z,94.51
2023-01-19T05:11:07.275Z,94.70
2023-01-19T05:13:36.343Z,94.91
2023-01-19T05:16:06.239Z,93.89
2023-01-19T05:18:37.177Z,94.28
2023-01-19T05:21:08.174Z,93.82
2023-01-19T05:23:37.233Z,94.04
2023-01-19T05:26:14.163Z,95.00
2023-01-19T05:28:42.782Z,94.44
2023-01-19T05:31:11.227Z,94.25
2023-01-19T05:33:39.701Z,93.73
2023-01-19T05:36:10.552Z,94.87
2023-01-19T05:38:39.161Z,94.49
2023-01-19T05:41:08.307Z,93.94
2023-01-19T05:43:37.505Z,94.86
2023-01-19T05:46:06.312Z,94.61
2023-01-19T05:48:35.741Z,94.38
2023-01-19T05:51:05.157Z,93.99
2023-01-19T05:53:35.007Z,94.14
2023-01-19T05:56:05.868Z,94.96
2023-01-19T05:58:35.811Z,94.06
2023-01-19T06:01:06.033Z,94.03
2023-01-19T06:03:36.261Z,94.70
2023-01-19T06:06:05.923Z,94.89
2023-01-19T06:08:36.054Z,94.02
2023-01-19T06:11:07.836Z,94.96
2023-01-19T06:13:37.283Z,93.98
2023-01-19T06:16:06.432Z,94.59
2023-01-19T06:18:34.962Z,94.29
2023-01-19T06:21:07.274Z,94.82
2023-01-19T06:23:38.474Z,94.02
2023-01-19T06:26:07.459Z,94.80
2023-01-19T06:28:35.976Z,95.10
2023-01-19T06:31:04.877Z,94.17
2023-01-19T06:33:33.453Z,95.01
2023-01-19T06:36:02.103Z,95.06
2023-01-19T06:38:30.768Z,94.68
2023-01-19T06:41:02.767Z,94.72
2023-01-19T06:43:32.070Z,94.74
2023-01-19T06:46:01.763Z,95.14
2023-01-19T06:48:30.200Z,94.40
2023-01-19T06:50:59.920Z,95.10
2023-01-19T06:53:30.210Z,95.01
2023-01-19T06:56:03.138Z,94.62
2023-01-19T06:58:34.827Z,94.39
2023-01-19T07:01:04.204Z,94.39
2023-01-19T07:03:33.523Z,94.66
2023-01-19T07:06:02.863Z,94.95
2023-01-19T07:08:31.364Z,94.92
2023-01-19T07:11:25.564Z,94.59
2023-01-19T07:13:56.034Z,94.62
2023-01-19T07:16:25.521Z,95.11
2023-01-19T07:18:54.731Z,94.73
2023-01-19T07:21:23.785Z,94.54
2023-01-19T07:23:53.484Z,95.31
2023-01-19T07:26:25.413Z,94.58
2023-01-19T07:28:54.339Z,94.47
2023-01-19T07:31:23.308Z,95.20
2023-01-19T07:33:52.114Z,95.02
2023-01-19T07:36:20.443Z,94.89
2023-01-19T07:38:48.817Z,94.89
2023-01-19T07:41:17.131Z,95.71
2023-01-19T07:43:47.239Z,95.63
2023-01-19T07:46:16.489Z,94.82
2023-01-19T07:48:47.462Z,95.68
2023-01-19T07:51:18.924Z,95.89
2023-01-19T07:53:47.654Z,94.92
2023-01-19T07:56:16.102Z,95.20
2023-01-19T07:58:46.940Z,95.30
2023-01-19T08:01:16.023Z,94.92
2023-01-19T08:03:45.001Z,95.85
2023-01-19T08:06:21.113Z,94.84
2023-01-19T08:08:49.786Z,95.96
2023-01-19T08:11:18.230Z,95.44
2023-01-19T08:13:47.961Z,95.23
2023-01-19T08:16:16.684Z,95.17
2023-01-19T08:18:45.456Z,95.70
2023-01-19T08:21:13.812Z,96.22
2023-01-19T08:23:42.586Z,95.59
2023-01-19T08:26:23.915Z,96.15
2023-01-19T08:28:54.316Z,95.82
2023-01-19T08:31:24.998Z,95.31
2023-01-19T08:33:53.832Z,96.24
2023-01-19T08:36:22.727Z,96.26
2023-01-19T08:38:51.287Z,95.58
2023-01-19T08:41:19.696Z,95.41
2023-01-19T08:43:48.010Z,95.21
2023-01-19T08:46:21.109Z,95.48
2023-01-19T08:48:50.327Z,96.05
2023-01-19T08:51:19.159Z,95.59
2023-01-19T08:53:47.566Z,95.35
2023-01-19T08:56:16.407Z,96.03
2023-01-19T08:58:53.667Z,95.91
2023-01-19T09:01:33.151Z,95.90
2023-01-19T09:04:01.592Z,95.21
2023-01-19T09:06:30.079Z,95.48
2023-01-19T09:08:58.665Z,94.97
2023-01-19T09:11:27.694Z,95.69
2023-01-19T09:13:56.019Z,94.79
2023-01-19T09:16:27.145Z,95.12
2023-01-19T09:18:57.122Z,95.50
2023-01-19T09:21:25.979Z,95.39
2023-01-19T09:23:54.798Z,94.97
2023-01-19T09:26:23.977Z,95.15
2023-01-19T09:28:52.479Z,95.71
2023-01-19T09:31:21.531Z,95.33
2023-01-19T09:33:50.131Z,95.38
2023-01-19T09:36:19.983Z,94.93
2023-01-19T09:38:48.403Z,95.05
2023-01-19T09:41:23.326Z,95.45
2023-01-19T09:43:57.629Z,95.15
2023-01-19T09:46:35.370Z,95.27
2023-01-19T09:49:07.962Z,95.29
2023-01-19T09:51:40.894Z,95.13
2023-01-19T09:54:15.808Z,95.14
2023-01-19T09:56:45.310Z,94.63
2023-01-19T09:59:22.597Z,95.39
2023-01-19T10:02:24.061Z,94.67
2023-01-19T10:05:01.429Z,95.07
2023-01-19T10:08:03.573Z,95.53
2023-01-19T10:10:33.898Z,95.28
2023-01-19T10:13:19.307Z,94.61
2023-01-19T10:16:03.189Z,95.29
2023-01-19T10:18:47.938Z,95.41
2023-01-19T10:21:21.287Z,95.07
2023-01-19T10:23:54.778Z,94.84
2023-01-19T10:26:26.544Z,94.42
2023-01-19T10:28:59.854Z,94.26
2023-01-19T10:31:28.348Z,94.27
2023-01-19T10:33:56.743Z,94.25
2023-01-19T10:36:36.330Z,94.47
2023-01-19T10:39:08.056Z,94.29
2023-01-19T10:41:44.060Z,94.16
2023-01-19T10:44:12.990Z,94.02
2023-01-19T10:46:46.653Z,94.02
2023-01-19T10:49:30.120Z,93.38
2023-01-19T10:52:01.466Z,94.01
2023-01-19T10:54:32.993Z,93.74
2023-01-19T10:57:05.933Z,93.64
2023-01-19T10:59:38.239Z,93.75
2023-01-19T11:02:20.402Z,93.23
2023-01-19T11:04:52.817Z,93.79
2023-01-19T11:07:24.903Z,93.59
2023-01-19T11:10:22.280Z,92.93
2023-01-19T11:13:03.409Z,92.69
2023-01-19T11:15:35.870Z,92.36
2023-01-19T11:18:06.934Z,92.60
2023-01-19T11:20:48.493Z,92.60
2023-01-19T11:23:29.473Z,92.49
2023-01-19T11:26:02.194Z,92.72
2023-01-19T11:28:35.826Z,92.15
2023-01-19T11:31:19.046Z,92.93
2023-01-19T11:33:52.437Z,92.25
2023-01-19T11:36:23.654Z,92.16
2023-01-19T11:38:55.765Z,92.08
2023-01-19T11:41:30.358Z,91.90
2023-01-19T11:44:12.441Z,91.76
2023-01-19T11:46:47.406Z,91.66
2023-01-19T11:49:26.419Z,91.51
2023-01-19T11:52:03.584Z,91.42
2023-01-19T11:54:38.013Z,91.91
2023-01-19T11:57:15.160Z,91.25
2023-01-19T11:59:43.905Z,91.08
2023-01-19T12:02:27.625Z,91.01
2023-01-19T12:05:00.643Z,90.54
2023-01-19T12:07:34.300Z,90.52
2023-01-19T12:10:21.691Z,90.11
2023-01-19T12:12:52.751Z,89.99
2023-01-19T12:15:28.126Z,89.19
2023-01-19T12:18:01.029Z,88.95
2023-01-19T12:20:33.294Z,89.26
2023-01-19T12:23:19.426Z,88.66
2023-01-19T12:26:03.694Z,88.20
2023-01-19T12:28:37.912Z,87.81
2023-01-19T12:31:08.099Z,86.74
2023-01-19T12:33:38.973Z,86.69
2023-01-19T12:36:12.407Z,85.10
2023-01-19T12:38:48.998Z,85.03
2023-01-19T12:41:30.467Z,82.87
2023-01-19T12:44:22.708Z,82.84
2023-01-19T12:46:55.697Z,82.99
2023-01-19T12:49:31.815Z,81.26
2023-01-19T12:52:30.871Z,81.39
2023-01-19T12:55:04.242Z,80.89
2023-01-19T12:57:39.202Z,79.95
2023-01-19T13:00:35.088Z,79.77
2023-01-19T13:03:22.258Z,78.97
2023-01-19T13:05:54.646Z,79.13
2023-01-19T13:08:29.931Z,78.86
2023-01-19T13:11:24.317Z,78.78
2023-01-19T13:14:36.998Z,79.00
2023-01-19T13:17:34.621Z,79.62
2023-01-19T13:20:28.438Z,78.40
2023-01-19T13:23:25.977Z,77.34
2023-01-19T13:26:06.911Z,77.26
2023-01-19T13:28:42.833Z,75.71
2023-01-19T13:31:12.338Z,74.33
2023-01-19T13:33:50.283Z,74.03
2023-01-19T13:36:32.536Z,73.05
2023-01-19T13:39:05.145Z,73.35
2023-01-19T13:41:38.397Z,74.17
2023-01-19T13:44:14.093Z,74.41
2023-01-19T13:46:42.835Z,74.10
2023-01-19T13:49:21.392Z,73.87
2023-01-19T13:52:06.380Z,74.56
2023-01-19T13:54:34.741Z,74.66
2023-01-19T13:57:03.139Z,74.21
2023-01-19T13:59:31.506Z,74.62
2023-01-19T14:02:12.718Z,74.93
2023-01-19T14:04:43.016Z,74.60
2023-01-19T14:07:26.252Z,75.02
2023-01-19T14:10:06.045Z,75.29
2023-01-19T14:12:37.615Z,75.04
2023-01-19T14:15:14.380Z,75.54
2023-01-19T14:17:43.701Z,74.70
2023-01-19T14:20:36.882Z,75.16
2023-01-19T14:23:05.692Z,74.72
2023-01-19T14:25:39.007Z,74.64
2023-01-19T14:28:30.932Z,75.25
2023-01-19T14:31:01.666Z,74.60
2023-01-19T14:33:46.122Z,74.85
2023-01-19T14:36:39.251Z,75.43
2023-01-19T14:39:20.456Z,75.93
2023-01-19T14:41:52.704Z,75.65
2023-01-19T14:44:29.841Z,76.04
2023-01-19T14:46:59.926Z,76.21
2023-01-19T14:49:34.310Z,76.53
2023-01-19T14:52:08.593Z,76.70
2023-01-19T14:54:40.972Z,76.71
2023-01-19T14:57:14.001Z,77.03
2023-01-19T14:59:46.941Z,77.40
2023-01-19T15:02:15.553Z,77.06
2023-01-19T15:04:44.014Z,77.25
2023-01-19T15:07:19.378Z,77.83
2023-01-19T15:09:48.881Z,77.55
2023-01-19T15:12:20.713Z,77.52
2023-01-19T15:14:49.487Z,78.42
2023-01-19T15:17:25.341Z,77.99
2023-01-19T15:19:55.189Z,78.84
2023-01-19T15:22:29.365Z,78.69
2023-01-19T15:25:00.137Z,79.07
2023-01-19T15:27:28.885Z,78.73
2023-01-19T15:29:58.480Z,79.32
2023-01-19T15:32:26.877Z,79.84
2023-01-19T15:34:55.612Z,79.22
2023-01-19T15:37:25.850Z,79.97
2023-01-19T15:39:54.697Z,79.64
2023-01-19T15:42:23.200Z,79.97
2023-01-19T15:44:51.672Z,80.59
2023-01-19T15:47:20.330Z,79.60
2023-01-19T15:49:49.046Z,80.02
2023-01-19T15:52:17.422Z,80.57
2023-01-19T15:54:47.175Z,80.96
2023-01-19T15:57:15.440Z,80.36
2023-01-19T15:59:44.150Z,80.78
2023-01-19T16:02:12.874Z,81.18
2023-01-19T16:04:41.722Z,81.05
2023-01-19T16:07:10.288Z,81.56
2023-01-19T16:09:38.785Z,81.81
2023-01-19T16:12:08.991Z,81.08
2023-01-19T16:14:37.894Z,82.02
2023-01-19T16:17:06.974Z,82.34
2023-01-19T16:19:37.983Z,82.18
2023-01-19T16:22:07.005Z,81.76
2023-01-19T16:24:35.764Z,82.52
2023-01-19T16:27:04.743Z,82.61
2023-01-19T16:29:34.605Z,83.14
2023-01-19T16:32:03.145Z,82.85
2023-01-19T16:34:31.601Z,82.19
2023-01-19T16:36:59.946Z,82.84
2023-01-19T16:39:29.602Z,83.18
2023-01-19T16:41:57.959Z,82.49
2023-01-19T16:44:26.303Z,82.83
2023-01-19T16:46:56.258Z,83.06
2023-01-19T16:49:28.535Z,82.55
2023-01-19T16:51:58.734Z,83.92
2023-01-19T16:54:29.295Z,83.04
2023-01-19T16:56:59.353Z,84.12
2023-01-19T16:59:30.571Z,84.03
2023-01-19T17:02:00.783Z,82.83
2023-01-19T17:04:29.583Z,83.28
2023-01-19T17:06:58.068Z,83.88
2023-01-19T17:09:26.496Z,82.97
2023-01-19T17:11:54.918Z,84.37
2023-01-19T17:14:23.824Z,83.82
2023-01-19T17:16:52.570Z,83.50
2023-01-19T17:19:23.521Z,83.62
2023-01-19T17:21:52.481Z,84.00
2023-01-19T17:24:21.617Z,84.15
2023-01-19T17:26:49.969Z,84.39
2023-01-19T17:29:19.048Z,84.55
2023-01-19T17:31:51.561Z,83.75
2023-01-19T17:34:21.471Z,83.88
2023-01-19T17:36:52.690Z,83.71
2023-01-19T17:39:21.651Z,84.13
2023-01-19T17:41:50.379Z,84.29
2023-01-19T17:44:19.574Z,84.87
2023-01-19T17:46:48.600Z,84.68
2023-01-19T17:49:16.981Z,84.28
2023-01-19T17:51:47.049Z,84.29
2023-01-19T17:54:15.330Z,84.42
2023-01-19T17:56:44.810Z,84.93
2023-01-19T17:59:13.339Z,84.27
2023-01-19T18:01:42.908Z,84.33
2023-01-19T18:04:11.788Z,84.62
2023-01-19T18:06:42.966Z,85.30
2023-01-19T18:09:13.000Z,84.42
2023-01-19T18:11:42.774Z,84.75
2023-01-19T18:14:11.226Z,84.56
2023-01-19T18:16:39.568Z,84.75
2023-01-19T18:19:08.473Z,85.66
2023-01-19T18:21:38.122Z,85.35
2023-01-19T18:24:08.467Z,85.17
2023-01-19T18:26:39.015Z,85.86
2023-01-19T18:29:07.536Z,85.79
2023-01-19T18:31:35.972Z,85.79
2023-01-19T18:34:04.871Z,85.76
2023-01-19T18:36:34.208Z,85.13
2023-01-19T18:39:03.464Z,85.88
2023-01-19T18:41:31.972Z,85.40
2023-01-19T18:44:02.145Z,85.82
2023-01-19T18:46:30.590Z,85.64
2023-01-19T18:48:58.915Z,85.38
2023-01-19T18:51:27.237Z,85.64
2023-01-19T18:53:55.836Z,86.05
2023-01-19T18:56:25.127Z,85.88
2023-01-19T18:58:54.307Z,86.62
2023-01-19T19:01:27.420Z,86.28
2023-01-19T19:03:57.115Z,86.17
2023-01-19T19:06:27.223Z,85.84
2023-01-19T19:08:57.669Z,86.21
2023-01-19T19:11:27.913Z,86.54
2023-01-19T19:13:58.524Z,86.09
2023-01-19T19:16:29.632Z,86.92
2023-01-19T19:18:58.155Z,86.81
2023-01-19T19:21:26.904Z,86.56
2023-01-19T19:23:57.373Z,87.17
2023-01-19T19:26:28.017Z,86.53
2023-01-19T19:28:56.845Z,86.77
2023-01-19T19:31:27.697Z,87.28
2023-01-19T19:33:58.314Z,87.08
2023-01-19T19:36:29.024Z,86.85
2023-01-19T19:38:59.215Z,87.37
2023-01-19T19:41:29.515Z,87.22
2023-01-19T19:43:57.934Z,87.14
2023-01-19T19:46:28.103Z,87.79
2023-01-19T19:48:56.561Z,87.10
2023-01-19T19:51:27.138Z,87.51
2023-01-19T19:53:57.437Z,87.63
2023-01-19T19:56:28.224Z,87.99
2023-01-19T19:58:59.086Z,87.56
2023-01-19T20:01:33.459Z,87.87
2023-01-19T20:04:09.835Z,88.37
2023-01-19T20:06:40.151Z,87.72
2023-01-19T20:09:10.728Z,88.05
2023-01-19T20:11:39.426Z,88.57
2023-01-19T20:14:09.651Z,88.47
2023-01-19T20:16:40.565Z,88.15
2023-01-19T20:19:09.534Z,88.02
2023-01-19T20:21:41.852Z,88.41
2023-01-19T20:24:15.663Z,88.32
2023-01-19T20:26:47.371Z,88.53
2023-01-19T20:29:16.567Z,87.92
2023-01-19T20:31:49.782Z,88.50
2023-01-19T20:34:21.392Z,88.61
2023-01-19T20:36:51.804Z,87.92
2023-01-19T20:39:21.901Z,88.70
2023-01-19T20:41:51.449Z,89.08
2023-01-19T20:44:23.261Z,88.92
2023-01-19T20:46:54.785Z,88.81
2023-01-19T20:49:24.038Z,88.49
2023-01-19T20:51:53.578Z,88.39
2023-01-19T20:54:27.269Z,88.68
2023-01-19T20:56:56.059Z,88.14
2023-01-19T20:59:24.979Z,88.78
2023-01-19T21:01:55.118Z,88.71
2023-01-19T21:04:23.983Z,87.94
2023-01-19T21:06:52.419Z,88.66
2023-01-19T21:09:21.842Z,87.97
2023-01-19T21:11:50.821Z,88.49
2023-01-19T21:14:22.077Z,88.69
2023-01-19T21:16:50.864Z,88.37
2023-01-19T21:19:20.789Z,88.24
2023-01-19T21:21:52.202Z,88.32
2023-01-19T21:24:21.099Z,88.81
2023-01-19T21:26:49.459Z,88.54
2023-01-19T21:29:17.700Z,88.86
2023-01-19T21:31:46.220Z,88.93
2023-01-19T21:34:14.841Z,89.05
2023-01-19T21:36:45.270Z,89.28
2023-01-19T21:39:14.895Z,88.99
2023-01-19T21:41:45.248Z,89.29
2023-01-19T21:44:14.420Z,89.38
2023-01-19T21:46:43.695Z,88.79
2023-01-19T21:49:19.195Z,89.03
2023-01-19T21:51:50.756Z,89.21
2023-01-19T21:54:19.473Z,89.45
2023-01-19T21:56:47.731Z,89.38
2023-01-19T21:59:17.629Z,88.84
2023-01-19T22:01:47.769Z,88.87
2023-01-19T22:04:16.135Z,89.45
2023-01-19T22:06:45.290Z,89.42
2023-01-19T22:09:14.944Z,89.21
2023-01-19T22:11:43.791Z,89.83
2023-01-19T22:14:12.162Z,89.48
2023-01-19T22:16:40.585Z,89.38
2023-01-19T22:19:14.454Z,89.61
2023-01-19T22:21:43.363Z,89.13
2023-01-19T22:24:12.854Z,89.38
2023-01-19T22:26:42.769Z,89.45
2023-01-19T22:29:13.392Z,89.46
2023-01-19T22:31:43.194Z,89.71
2023-01-19T22:34:11.818Z,89.68
2023-01-19T22:36:40.886Z,89.56
2023-01-19T22:39:11.666Z,89.59
2023-01-19T22:41:44.079Z,89.45
2023-01-19T22:44:16.436Z,89.49
2023-01-19T22:46:45.389Z,89.13
2023-01-19T22:49:16.226Z,90.10
2023-01-19T22:51:45.742Z,89.90
2023-01-19T22:54:14.561Z,89.63
2023-01-19T22:56:45.772Z,90.01
2023-01-19T22:59:14.115Z,89.53
2023-01-19T23:01:44.763Z,89.89
2023-01-19T23:04:15.555Z,90.02
2023-01-19T23:06:47.014Z,89.52
2023-01-19T23:09:15.974Z,89.95
2023-01-19T23:11:50.870Z,90.07
2023-01-19T23:14:23.203Z,89.97
2023-01-19T23:16:51.906Z,90.00
2023-01-19T23:19:20.991Z,89.89
2023-01-19T23:21:52.603Z,89.79
2023-01-19T23:24:21.164Z,89.94
2023-01-19T23:26:52.263Z,90.41
2023-01-19T23:29:20.816Z,90.14
2023-01-19T23:31:50.891Z,90.21
2023-01-19T23:34:19.255Z,89.91
2023-01-19T23:36:47.532Z,90.01
2023-01-19T23:39:19.002Z,90.13
2023-01-19T23:41:48.163Z,90.03
2023-01-19T23:44:18.495Z,90.56
2023-01-19T23:46:47.253Z,90.33
2023-01-19T23:49:15.766Z,90.40
2023-01-19T23:51:44.799Z,90.20
2023-01-19T23:54:13.218Z,90.34
2023-01-19T23:56:42.795Z,90.70
2023-01-19T23:59:13.258Z,90.89
